This is the latest recevied weather packets stored in our database for station/object IT9RID. If no packets are shown the sender has not sent any weather packets the latest 1 day(s).
| Time | Temp. | Humidity | Pressure | Rain* | Wind** | Luminosity | Snow |
|---|---|---|---|---|---|---|---|
| 1777977260 | 22.22° C | 56% | 1016.4 hPa | 0 mm | 2.24 m/s, 302° | - | - |
| 1777976660 | 22.22° C | 53% | 1016.4 hPa | 0 mm | 0.45 m/s, 333° | - | - |
| 1777976060 | 22.22° C | 52% | 1016.5 hPa | 0 mm | 0.45 m/s, 20° | - | - |
| 1777975460 | 21.11° C | 52% | 1016.7 hPa | 0 mm | 0 m/s | - | - |
| 1777974859 | 21.11° C | 55% | 1016.8 hPa | 0 mm | 0.45 m/s, 246° | - | - |
| 1777974259 | 21.67° C | 53% | 1016.9 hPa | 0 mm | 0 m/s | - | - |
| 1777973659 | 20.56° C | 54% | 1017 hPa | 0 mm | 0 m/s | - | - |
| 1777973059 | 21.11° C | 55% | 1016.9 hPa | 0 mm | 1.34 m/s, 321° | - | - |
| 1777972460 | 20.56° C | 55% | 1016.9 hPa | 0 mm | 0.45 m/s, 254° | - | - |
| 1777971859 | 20.56° C | 57% | 1016.9 hPa | 0 mm | 1.79 m/s, 340° | - | - |
| 1777971259 | 20.56° C | 56% | 1016.9 hPa | 0 mm | 0 m/s | - | - |
| 1777970658 | 21.11° C | 54% | 1016.9 hPa | 0 mm | 0 m/s | - | - |
| 1777970058 | 20.56° C | 56% | 1016.9 hPa | 0 mm | 0.89 m/s, 247° | - | - |
| 1777969458 | 20.56° C | 58% | 1016.9 hPa | 0 mm | 0 m/s | - | - |
| 1777968858 | 20.56° C | 59% | 1016.9 hPa | 0 mm | 0 m/s | - | - |
| 1777968258 | 20° C | 60% | 1016.8 hPa | 0 mm | 1.34 m/s, 322° | - | - |
| 1777967661 | 20° C | 60% | 1016.7 hPa | 0 mm | 0 m/s | - | - |
| 1777967058 | 20° C | 60% | 1016.7 hPa | 0 mm | 0 m/s | - | - |
| 1777966457 | 20° C | 59% | 1016.8 hPa | 0 mm | 0 m/s | - | - |
| 1777965857 | 20° C | 59% | 1016.9 hPa | 0 mm | 0 m/s | - | - |
| 1777965257 | 19.44° C | 62% | 1016.9 hPa | 0 mm | 0 m/s | - | - |
* Rain latest hour (hover to see other rain measurements)
** Current wind speed in m/s (hover to see current wind gust speed)